createdAt,value
2018-05-24T00:01:27.054Z,84.70
2018-05-24T00:03:56.282Z,84.70
2018-05-24T00:06:25.126Z,84.70
2018-05-24T00:08:53.963Z,84.30
2018-05-24T00:11:22.829Z,84.60
2018-05-24T00:13:51.669Z,84.40
2018-05-24T00:16:20.523Z,84.50
2018-05-24T00:18:49.358Z,84.40
2018-05-24T00:21:18.211Z,84.60
2018-05-24T00:23:47.049Z,84.80
2018-05-24T00:26:15.909Z,84.70
2018-05-24T00:28:44.738Z,85.00
2018-05-24T00:31:13.623Z,84.80
2018-05-24T00:33:42.459Z,85.00
2018-05-24T00:36:11.311Z,84.90
2018-05-24T00:38:40.203Z,85.00
2018-05-24T00:41:09.068Z,84.80
2018-05-24T00:43:37.920Z,84.80
2018-05-24T00:46:06.777Z,84.80
2018-05-24T00:48:35.618Z,84.80
2018-05-24T00:51:04.470Z,84.40
2018-05-24T00:53:33.312Z,84.30
2018-05-24T00:56:02.191Z,84.40
2018-05-24T00:58:31.028Z,84.20
2018-05-24T01:01:00.621Z,84.10
2018-05-24T01:03:29.463Z,84.40
2018-05-24T01:05:58.310Z,84.20
2018-05-24T01:08:27.903Z,85.10
2018-05-24T01:13:26.193Z,84.60
2018-05-24T01:15:55.131Z,84.80
2018-05-24T01:18:23.899Z,84.90
2018-05-24T01:20:52.750Z,84.80
2018-05-24T01:23:21.582Z,84.80
2018-05-24T01:25:51.170Z,84.70
2018-05-24T01:28:20.759Z,84.50
2018-05-24T01:30:49.601Z,84.40
2018-05-24T01:33:18.446Z,84.40
2018-05-24T01:35:47.318Z,84.60
2018-05-24T01:38:16.209Z,84.00
2018-05-24T01:40:45.052Z,84.40
2018-05-24T01:43:13.887Z,84.30
2018-05-24T01:45:42.741Z,84.00
2018-05-24T01:48:11.579Z,84.20
2018-05-24T01:50:40.439Z,84.40
2018-05-24T01:53:09.275Z,84.20
2018-05-24T01:55:38.114Z,84.20
2018-05-24T01:58:06.961Z,84.30
2018-05-24T02:00:35.801Z,84.20
2018-05-24T02:03:04.654Z,84.30
2018-05-24T02:05:33.495Z,84.50
2018-05-24T02:08:02.354Z,84.20
2018-05-24T02:10:31.192Z,84.20
2018-05-24T02:13:00.059Z,84.20
2018-05-24T02:15:28.915Z,84.00
2018-05-24T02:17:57.771Z,84.00
2018-05-24T02:20:26.613Z,84.40
2018-05-24T02:22:55.469Z,84.00
2018-05-24T02:25:24.306Z,84.00
2018-05-24T02:27:53.148Z,84.20
2018-05-24T02:30:21.988Z,84.80
2018-05-24T02:32:50.847Z,84.40
2018-05-24T02:35:19.687Z,84.60
2018-05-24T02:37:48.572Z,84.40
2018-05-24T02:40:17.410Z,84.60
2018-05-24T02:42:46.273Z,84.60
2018-05-24T02:45:15.852Z,84.70
2018-05-24T02:47:44.721Z,84.30
2018-05-24T02:50:13.555Z,84.90
2018-05-24T02:52:43.144Z,84.70
2018-05-24T02:55:11.981Z,84.50
2018-05-24T02:57:40.832Z,84.60
2018-05-24T03:00:09.677Z,84.60
2018-05-24T03:02:38.527Z,84.50
2018-05-24T03:05:07.376Z,84.50
2018-05-24T03:07:36.233Z,84.50
2018-05-24T03:10:05.071Z,84.90
2018-05-24T03:12:33.935Z,84.50
2018-05-24T03:15:02.781Z,84.20
2018-05-24T03:17:31.624Z,84.60
2018-05-24T03:20:00.544Z,84.50
2018-05-24T03:22:29.312Z,85.00
2018-05-24T03:24:58.145Z,84.70
2018-05-24T03:27:27.002Z,84.90
2018-05-24T03:29:56.588Z,85.40
2018-05-24T03:32:25.438Z,85.20
2018-05-24T03:34:54.271Z,84.90
2018-05-24T03:37:23.170Z,85.00
2018-05-24T03:39:52.005Z,84.90
2018-05-24T03:42:20.855Z,85.20
2018-05-24T03:44:49.706Z,85.30
2018-05-24T03:47:18.558Z,84.90
2018-05-24T03:49:47.397Z,85.50
2018-05-24T03:52:16.263Z,85.70
2018-05-24T03:54:45.103Z,85.60
2018-05-24T03:57:14.689Z,85.70
2018-05-24T04:02:45.340Z,86.00
2018-05-24T04:05:14.197Z,85.50
2018-05-24T04:07:43.033Z,85.40
2018-05-24T04:10:11.860Z,85.40
2018-05-24T04:12:40.710Z,85.50
2018-05-24T04:15:09.572Z,85.40
2018-05-24T04:17:38.480Z,85.20
2018-05-24T04:20:07.310Z,85.60
2018-05-24T04:22:36.168Z,85.30
2018-05-24T04:25:05.022Z,85.30
2018-05-24T04:27:33.875Z,85.20
2018-05-24T04:30:02.711Z,85.40
2018-05-24T04:32:31.549Z,85.20
2018-05-24T04:35:00.400Z,84.80
2018-05-24T04:37:29.251Z,84.60
2018-05-24T04:39:58.090Z,84.40
2018-05-24T04:42:27.687Z,84.40
2018-05-24T04:44:56.517Z,84.70
2018-05-24T04:47:25.380Z,85.00
2018-05-24T04:49:54.241Z,84.90
2018-05-24T04:52:23.094Z,85.40
2018-05-24T04:54:51.921Z,85.20
2018-05-24T04:57:20.750Z,85.20
2018-05-24T04:59:50.354Z,85.20
2018-05-24T05:02:19.922Z,85.30
2018-05-24T05:04:48.784Z,85.30
2018-05-24T05:07:17.608Z,85.10
2018-05-24T05:09:46.478Z,85.10
2018-05-24T05:12:15.325Z,85.40
2018-05-24T05:14:44.955Z,85.50
2018-05-24T05:17:13.780Z,85.20
2018-05-24T05:19:42.598Z,85.40
2018-05-24T05:22:12.203Z,85.20
2018-05-24T05:27:10.669Z,85.40
2018-05-24T05:29:39.516Z,85.70
2018-05-24T05:32:08.348Z,85.90
2018-05-24T05:34:37.199Z,86.20
2018-05-24T05:37:06.126Z,86.30
2018-05-24T05:39:34.980Z,86.40
2018-05-24T05:42:03.816Z,86.90
2018-05-24T05:44:32.669Z,86.90
2018-05-24T05:47:01.510Z,86.70
2018-05-24T05:49:30.422Z,87.00
2018-05-24T05:51:59.302Z,87.10
2018-05-24T05:54:28.124Z,87.10
2018-05-24T05:56:56.965Z,87.00
2018-05-24T05:59:25.818Z,86.80
2018-05-24T06:01:54.717Z,86.90
2018-05-24T06:04:24.267Z,87.00
2018-05-24T06:06:53.127Z,86.70
2018-05-24T06:09:21.979Z,86.30
2018-05-24T06:11:50.817Z,86.40
2018-05-24T06:14:19.674Z,86.30
2018-05-24T06:16:48.509Z,86.30
2018-05-24T06:19:17.363Z,86.20
2018-05-24T06:21:46.193Z,85.70
2018-05-24T06:24:15.040Z,86.30
2018-05-24T06:26:43.890Z,86.30
2018-05-24T06:29:12.793Z,86.30
2018-05-24T06:31:41.605Z,85.90
2018-05-24T06:34:10.445Z,86.00
2018-05-24T06:36:40.032Z,86.00
2018-05-24T06:39:08.883Z,85.70
2018-05-24T06:41:37.728Z,85.30
2018-05-24T06:44:06.588Z,85.00
2018-05-24T06:46:36.346Z,84.70
2018-05-24T06:49:05.155Z,84.80
2018-05-24T06:51:34.006Z,84.90
2018-05-24T06:54:03.602Z,85.10
2018-05-24T06:56:32.478Z,84.80
2018-05-24T06:59:02.088Z,84.70
2018-05-24T07:01:30.929Z,84.60
2018-05-24T07:03:59.767Z,84.70
2018-05-24T07:06:28.616Z,84.60
2018-05-24T07:08:57.489Z,84.40
2018-05-24T07:11:26.345Z,84.70
2018-05-24T07:13:55.225Z,84.10
2018-05-24T07:16:24.057Z,84.30
2018-05-24T07:18:52.908Z,84.30
2018-05-24T07:21:21.753Z,83.70
2018-05-24T07:23:50.593Z,83.90
2018-05-24T07:28:48.981Z,82.90
2018-05-24T07:31:18.478Z,83.40
2018-05-24T07:33:47.334Z,82.80
2018-05-24T07:36:16.177Z,82.80
2018-05-24T07:38:45.760Z,82.50
2018-05-24T07:41:14.613Z,81.80
2018-05-24T07:43:43.454Z,81.80
2018-05-24T07:46:13.057Z,81.50
2018-05-24T07:48:41.887Z,81.50
2018-05-24T07:51:10.746Z,81.40
2018-05-24T07:53:40.320Z,81.70
2018-05-24T07:56:09.189Z,81.10
2018-05-24T07:58:38.041Z,81.10
2018-05-24T08:01:07.640Z,80.50
2018-05-24T08:03:37.212Z,80.30
2018-05-24T08:06:06.065Z,80.60
2018-05-24T08:08:34.989Z,80.00
2018-05-24T08:11:03.785Z,80.30
2018-05-24T08:13:32.619Z,80.20
2018-05-24T08:16:01.469Z,79.40
2018-05-24T08:18:30.311Z,79.40
2018-05-24T08:20:59.171Z,79.30
2018-05-24T08:23:28.010Z,79.10
2018-05-24T08:25:56.878Z,79.60
2018-05-24T08:28:25.710Z,78.70
2018-05-24T08:30:54.584Z,78.10
2018-05-24T08:33:23.417Z,77.90
2018-05-24T08:35:53.012Z,77.50
2018-05-24T08:38:21.894Z,77.50
2018-05-24T08:40:50.834Z,77.50
2018-05-24T08:43:19.578Z,77.80
2018-05-24T08:45:48.440Z,77.30
2018-05-24T08:48:17.282Z,77.60
2018-05-24T08:50:46.865Z,77.50
2018-05-24T08:53:16.532Z,78.10
2018-05-24T08:55:45.302Z,78.10
2018-05-24T08:58:14.243Z,78.00
2018-05-24T09:00:43.095Z,78.50
2018-05-24T09:03:11.935Z,78.40
2018-05-24T09:05:40.788Z,77.90
2018-05-24T09:08:09.636Z,77.00
2018-05-24T09:10:39.227Z,77.10
2018-05-24T09:13:08.810Z,76.40
2018-05-24T09:15:37.670Z,76.20
2018-05-24T09:18:06.618Z,75.30
2018-05-24T09:20:35.480Z,74.30
2018-05-24T09:23:04.335Z,74.40
2018-05-24T09:25:33.186Z,74.00
2018-05-24T09:28:02.767Z,74.40
2018-05-24T09:30:31.623Z,74.70
2018-05-24T09:33:00.473Z,74.50
2018-05-24T09:35:29.344Z,74.40
2018-05-24T09:37:58.174Z,74.50
2018-05-24T09:40:27.038Z,74.50
2018-05-24T09:42:55.901Z,73.90
2018-05-24T09:45:24.752Z,74.00
2018-05-24T09:47:53.599Z,75.20
2018-05-24T09:50:22.443Z,75.70
2018-05-24T09:52:51.291Z,74.50
2018-05-24T09:55:20.177Z,75.10
2018-05-24T09:57:49.000Z,75.00
2018-05-24T10:00:17.840Z,73.80
2018-05-24T10:02:46.705Z,74.20
2018-05-24T10:05:15.547Z,74.00
2018-05-24T10:07:44.405Z,74.50
2018-05-24T10:10:13.249Z,73.80
2018-05-24T10:12:42.104Z,73.50
2018-05-24T10:15:11.686Z,73.80
2018-05-24T10:17:40.540Z,73.40
2018-05-24T10:20:09.379Z,72.80
2018-05-24T10:22:38.989Z,72.40
2018-05-24T10:25:07.825Z,72.70
2018-05-24T10:27:36.668Z,72.00
2018-05-24T10:30:05.524Z,72.20
2018-05-24T10:32:34.373Z,71.80
2018-05-24T10:35:03.219Z,71.70
2018-05-24T10:37:32.114Z,72.10
2018-05-24T10:40:00.953Z,71.10
2018-05-24T10:42:29.804Z,70.90
2018-05-24T10:44:58.664Z,71.00
2018-05-24T10:47:27.502Z,69.90
2018-05-24T10:49:56.338Z,70.50
2018-05-24T10:52:25.182Z,70.50
2018-05-24T10:54:54.017Z,69.90
2018-05-24T10:57:22.867Z,69.90
2018-05-24T10:59:51.711Z,69.00
2018-05-24T11:02:20.578Z,68.60
2018-05-24T11:04:49.416Z,70.00
2018-05-24T11:07:19.020Z,69.80
2018-05-24T11:09:47.856Z,68.50
2018-05-24T11:12:16.718Z,68.60
2018-05-24T11:14:45.552Z,68.10
2018-05-24T11:17:14.404Z,66.50
2018-05-24T11:19:43.249Z,66.60
2018-05-24T11:22:12.099Z,67.40
2018-05-24T11:24:40.941Z,67.10
2018-05-24T11:27:09.794Z,66.70
2018-05-24T11:29:38.625Z,66.20
2018-05-24T11:32:07.502Z,65.00
2018-05-24T11:34:36.308Z,66.10
2018-05-24T11:37:05.228Z,65.50
2018-05-24T11:39:34.018Z,65.80
2018-05-24T11:42:02.870Z,65.50
2018-05-24T11:44:32.546Z,65.60
2018-05-24T11:47:01.289Z,65.10
2018-05-24T11:49:30.122Z,64.70
2018-05-24T11:51:59.035Z,64.60
2018-05-24T11:54:27.830Z,64.00
2018-05-24T11:56:56.686Z,63.90
2018-05-24T11:59:25.557Z,63.90
2018-05-24T12:01:54.427Z,63.20
2018-05-24T12:04:23.233Z,62.80
2018-05-24T12:06:52.096Z,63.10
2018-05-24T12:09:20.947Z,64.20
2018-05-24T12:11:49.803Z,63.50
2018-05-24T12:14:18.641Z,63.80
2018-05-24T12:16:48.255Z,64.00
2018-05-24T12:19:17.854Z,64.80
2018-05-24T12:21:46.720Z,65.60
2018-05-24T12:24:15.570Z,65.30
2018-05-24T12:26:44.421Z,64.90
2018-05-24T12:29:13.433Z,65.20
2018-05-24T12:31:42.112Z,64.80
2018-05-24T12:34:11.694Z,64.80
2018-05-24T12:36:40.545Z,65.00
2018-05-24T12:39:09.486Z,64.00
2018-05-24T12:41:39.056Z,64.00
2018-05-24T12:44:07.914Z,64.00
2018-05-24T12:46:36.761Z,63.30
2018-05-24T12:49:05.629Z,62.10
2018-05-24T12:51:34.464Z,62.40
2018-05-24T12:54:03.305Z,62.30
2018-05-24T12:56:32.137Z,61.70
2018-05-24T12:59:01.004Z,61.70
2018-05-24T13:01:29.834Z,61.90
2018-05-24T13:03:58.691Z,62.20
2018-05-24T13:06:27.526Z,61.80
2018-05-24T13:08:56.387Z,61.80
2018-05-24T13:11:25.962Z,61.50
2018-05-24T13:13:54.937Z,61.60
2018-05-24T13:16:23.757Z,62.20
2018-05-24T13:18:52.622Z,61.90
2018-05-24T13:21:21.477Z,63.20
2018-05-24T13:23:50.329Z,62.70
2018-05-24T13:26:19.162Z,62.40
2018-05-24T13:28:48.024Z,62.40
2018-05-24T13:31:17.598Z,61.80
2018-05-24T13:33:46.452Z,61.50
2018-05-24T13:36:15.290Z,62.00
2018-05-24T13:38:44.198Z,62.20
2018-05-24T13:41:13.040Z,61.60
2018-05-24T13:43:41.897Z,60.30
2018-05-24T13:46:10.744Z,60.10
2018-05-24T13:48:39.595Z,61.00
2018-05-24T13:51:08.438Z,60.30
2018-05-24T13:53:37.301Z,60.00
2018-05-24T13:56:06.120Z,60.10
2018-05-24T13:58:34.975Z,60.90
2018-05-24T14:01:03.854Z,60.30
2018-05-24T14:03:33.429Z,59.10
2018-05-24T14:06:02.260Z,60.00
2018-05-24T14:08:31.102Z,59.60
2018-05-24T14:10:59.936Z,59.60
2018-05-24T14:13:28.833Z,58.80
2018-05-24T14:15:57.634Z,58.70
2018-05-24T14:18:26.558Z,58.00
2018-05-24T14:20:55.409Z,56.70
2018-05-24T14:23:24.242Z,57.50
2018-05-24T14:25:53.815Z,58.00
2018-05-24T14:28:22.677Z,57.50
2018-05-24T14:30:51.505Z,58.10
2018-05-24T14:33:20.355Z,58.70
2018-05-24T14:35:49.186Z,58.90
2018-05-24T14:38:18.047Z,58.40
2018-05-24T14:40:46.886Z,57.50
2018-05-24T14:43:15.745Z,56.30
2018-05-24T14:45:44.584Z,55.20
2018-05-24T14:48:13.464Z,54.70
2018-05-24T14:50:42.330Z,53.50
2018-05-24T14:53:11.246Z,52.10
2018-05-24T14:55:40.792Z,53.20
2018-05-24T14:58:09.639Z,51.50
2018-05-24T15:00:38.533Z,50.20
2018-05-24T15:03:07.381Z,51.20
2018-05-24T15:05:36.237Z,50.20
2018-05-24T15:08:05.074Z,50.90
2018-05-24T15:10:33.950Z,51.70
2018-05-24T15:13:02.785Z,51.00
2018-05-24T15:15:31.637Z,51.50
2018-05-24T15:18:00.483Z,52.40
2018-05-24T15:20:29.333Z,52.30
2018-05-24T15:22:58.923Z,53.30
2018-05-24T15:25:27.790Z,53.30
2018-05-24T15:27:56.596Z,51.40
2018-05-24T15:30:25.448Z,52.10
2018-05-24T15:32:54.277Z,52.90
2018-05-24T15:35:23.150Z,52.80
2018-05-24T15:37:51.976Z,52.10
2018-05-24T15:40:20.819Z,51.70
2018-05-24T15:42:49.668Z,52.50
2018-05-24T15:45:18.532Z,53.00
2018-05-24T15:47:48.101Z,53.00
2018-05-24T15:50:16.953Z,52.50
2018-05-24T15:52:45.793Z,52.80
2018-05-24T15:55:14.623Z,52.30
2018-05-24T15:57:44.206Z,52.60
2018-05-24T16:00:13.064Z,52.60
2018-05-24T16:02:41.897Z,52.90
2018-05-24T16:05:11.497Z,52.50
2018-05-24T16:07:40.320Z,53.20
2018-05-24T16:10:09.196Z,53.80
2018-05-24T16:12:38.009Z,54.10
2018-05-24T16:15:06.860Z,54.20
2018-05-24T16:17:35.727Z,54.10
2018-05-24T16:20:04.575Z,54.00
2018-05-24T16:22:33.408Z,54.30
2018-05-24T16:25:02.285Z,55.90
2018-05-24T16:27:31.089Z,56.20
2018-05-24T16:29:59.933Z,56.30
2018-05-24T16:32:28.774Z,55.60
2018-05-24T16:34:57.612Z,56.40
2018-05-24T16:37:26.486Z,56.40
2018-05-24T16:39:55.378Z,56.10
2018-05-24T16:42:24.166Z,56.40
2018-05-24T16:44:53.002Z,56.80
2018-05-24T16:47:21.854Z,56.90
2018-05-24T16:49:50.689Z,57.60
2018-05-24T16:52:19.532Z,57.70
2018-05-24T16:54:48.374Z,57.90
2018-05-24T16:57:17.205Z,58.20
2018-05-24T16:59:46.070Z,58.10
2018-05-24T17:02:14.904Z,58.60
2018-05-24T17:04:43.795Z,59.80
2018-05-24T17:07:12.583Z,60.40
2018-05-24T17:09:41.424Z,61.40
2018-05-24T17:12:10.269Z,61.60
2018-05-24T17:14:39.092Z,62.20
2018-05-24T17:17:07.939Z,62.60
2018-05-24T17:19:36.793Z,63.10
2018-05-24T17:22:06.376Z,63.30
2018-05-24T17:24:35.205Z,63.70
2018-05-24T17:27:04.077Z,64.00
2018-05-24T17:29:32.909Z,64.20
2018-05-24T17:32:01.766Z,64.40
2018-05-24T17:34:30.591Z,64.70
2018-05-24T17:36:59.440Z,65.00
2018-05-24T17:39:29.014Z,65.20
2018-05-24T17:41:57.861Z,65.40
2018-05-24T17:44:26.680Z,66.40
2018-05-24T17:46:55.514Z,65.90
2018-05-24T17:49:25.093Z,66.50
2018-05-24T17:51:53.948Z,66.60
2018-05-24T17:54:22.782Z,67.10
2018-05-24T17:56:51.651Z,67.30
2018-05-24T17:59:20.466Z,67.40
2018-05-24T18:01:49.324Z,67.30
2018-05-24T18:04:18.173Z,66.90
2018-05-24T18:06:47.757Z,66.90
2018-05-24T18:09:16.623Z,67.20
2018-05-24T18:11:45.470Z,67.00
2018-05-24T18:14:14.535Z,67.30
2018-05-24T18:16:43.164Z,67.50
2018-05-24T18:19:12.099Z,67.70
2018-05-24T18:21:40.937Z,67.70
2018-05-24T18:24:09.770Z,68.00
2018-05-24T18:26:38.613Z,68.40
2018-05-24T18:29:08.182Z,68.70
2018-05-24T18:31:37.033Z,68.80
2018-05-24T18:34:05.866Z,69.00
2018-05-24T18:36:34.704Z,69.20
2018-05-24T18:39:03.764Z,68.90
2018-05-24T18:41:32.383Z,69.30
2018-05-24T18:44:01.215Z,69.50
2018-05-24T18:46:30.083Z,70.00
2018-05-24T18:48:58.927Z,70.30
2018-05-24T18:51:27.800Z,70.30
2018-05-24T18:53:56.623Z,70.50
2018-05-24T18:56:25.477Z,70.40
2018-05-24T18:58:54.316Z,70.40
2018-05-24T19:01:23.166Z,70.60
2018-05-24T19:06:21.446Z,71.10
2018-05-24T19:08:50.294Z,71.50
2018-05-24T19:11:19.151Z,72.00
2018-05-24T19:13:47.986Z,72.50
2018-05-24T19:16:16.838Z,72.50
2018-05-24T19:18:45.670Z,73.00
2018-05-24T19:21:14.536Z,73.50
2018-05-24T19:23:43.372Z,73.50
2018-05-24T19:26:12.214Z,73.80
2018-05-24T19:28:41.055Z,73.80
2018-05-24T19:31:09.902Z,73.70
2018-05-24T19:33:38.735Z,74.00
2018-05-24T19:36:07.591Z,74.20
2018-05-24T19:38:36.419Z,74.20
2018-05-24T19:41:05.267Z,74.40
2018-05-24T19:43:34.128Z,74.40
2018-05-24T19:46:03.007Z,74.80
2018-05-24T19:48:31.823Z,74.70
2018-05-24T19:51:00.698Z,74.90
2018-05-24T19:53:29.519Z,74.60
2018-05-24T19:55:58.353Z,74.90
2018-05-24T19:58:27.250Z,74.90
2018-05-24T20:00:56.057Z,75.10
2018-05-24T20:03:24.904Z,75.30
2018-05-24T20:06:06.463Z,75.50
2018-05-24T20:08:35.311Z,75.90
2018-05-24T20:11:04.131Z,76.00
2018-05-24T20:13:32.975Z,76.20
2018-05-24T20:16:01.821Z,76.80
2018-05-24T20:18:30.677Z,77.60
2018-05-24T20:20:59.504Z,78.10
2018-05-24T20:23:28.352Z,78.30
2018-05-24T20:25:57.928Z,78.60
2018-05-24T20:28:26.788Z,78.50
2018-05-24T20:30:55.616Z,78.20
2018-05-24T20:33:24.475Z,78.30
2018-05-24T20:35:53.306Z,78.30
2018-05-24T20:38:22.163Z,78.70
2018-05-24T20:40:50.984Z,78.80
2018-05-24T20:43:19.823Z,78.70
2018-05-24T20:45:48.660Z,78.80
2018-05-24T20:48:17.517Z,78.80
2018-05-24T20:50:46.344Z,78.40
2018-05-24T20:53:15.192Z,79.00
2018-05-24T20:55:44.038Z,78.90
2018-05-24T20:58:12.874Z,79.10
2018-05-24T21:00:41.719Z,78.90
2018-05-24T21:03:11.315Z,78.90
2018-05-24T21:05:40.159Z,78.80
2018-05-24T21:08:09.005Z,78.80
2018-05-24T21:10:37.855Z,79.10
2018-05-24T21:13:06.687Z,79.30
2018-05-24T21:15:35.526Z,79.90
2018-05-24T21:18:04.446Z,79.70
2018-05-24T21:20:33.281Z,79.80
2018-05-24T21:23:02.130Z,79.50
2018-05-24T21:25:30.968Z,79.30
2018-05-24T21:27:59.813Z,79.80
2018-05-24T21:30:28.680Z,79.70
2018-05-24T21:32:57.484Z,79.70
2018-05-24T21:35:26.331Z,79.70
2018-05-24T21:37:55.229Z,79.50
2018-05-24T21:40:24.766Z,80.00
2018-05-24T21:42:53.611Z,80.00
2018-05-24T21:45:22.455Z,79.90
2018-05-24T21:47:51.295Z,80.30
2018-05-24T21:50:20.133Z,80.70
2018-05-24T21:52:48.999Z,80.90
2018-05-24T21:55:17.837Z,81.00
2018-05-24T21:57:47.430Z,80.90
2018-05-24T22:00:16.270Z,81.00
2018-05-24T22:02:45.123Z,80.90
2018-05-24T22:05:13.990Z,80.90
2018-05-24T22:07:42.836Z,81.00
2018-05-24T22:10:11.682Z,80.80
2018-05-24T22:12:40.531Z,80.80
2018-05-24T22:15:09.377Z,80.90
2018-05-24T22:17:38.960Z,81.00
2018-05-24T22:20:07.806Z,80.90
2018-05-24T22:22:36.653Z,81.10
2018-05-24T22:25:05.495Z,81.00
2018-05-24T22:27:34.331Z,81.00
2018-05-24T22:30:03.199Z,81.10
2018-05-24T22:32:32.045Z,80.80
2018-05-24T22:35:00.904Z,81.00
2018-05-24T22:37:30.485Z,81.00
2018-05-24T22:39:59.339Z,80.80
2018-05-24T22:42:28.182Z,80.80
2018-05-24T22:44:57.080Z,80.90
2018-05-24T22:47:26.658Z,81.00
2018-05-24T22:49:55.517Z,80.80
2018-05-24T22:52:24.361Z,80.90
2018-05-24T22:54:53.256Z,80.70
2018-05-24T22:57:22.829Z,80.80
2018-05-24T22:59:51.698Z,80.30
2018-05-24T23:02:20.533Z,81.30
2018-05-24T23:04:49.406Z,81.30
2018-05-24T23:07:18.248Z,81.30
2018-05-24T23:09:47.094Z,81.80
2018-05-24T23:12:15.928Z,81.40
2018-05-24T23:14:44.776Z,81.50
2018-05-24T23:17:13.640Z,81.60
2018-05-24T23:19:42.488Z,81.90
2018-05-24T23:22:12.303Z,81.80
2018-05-24T23:24:41.895Z,81.90
2018-05-24T23:27:11.470Z,82.70
2018-05-24T23:29:40.320Z,82.50
2018-05-24T23:32:09.171Z,82.50
2018-05-24T23:34:38.013Z,82.40
2018-05-24T23:37:06.856Z,82.10
2018-05-24T23:39:35.721Z,82.10
2018-05-24T23:42:04.552Z,82.20
2018-05-24T23:44:33.404Z,82.60
2018-05-24T23:47:02.237Z,82.80
2018-05-24T23:49:31.090Z,83.10
2018-05-24T23:51:59.928Z,82.30
2018-05-24T23:54:28.776Z,82.60
2018-05-24T23:56:57.616Z,82.30
2018-05-24T23:59:26.445Z,82.10
